Time;durP1;ratioP1;P1;durP2;ratioP2;P2;SDS_P1;SDS_P2;PMS_P1;PMS_P2;Temp;Humidity;BMP_temperature;BMP_pressure;BME280_temperature;BME280_humidity;BME280_pressure;Samples;Min_cycle;Max_cycle;Signal;HPM_P1;HPM_P2
2023/07/05 00:01:13;;;;;;;;;;;;;;;26.91;37.66;100600.91;5055476;28;1035;-38
2023/07/05 00:03:39;;;;;;;;;;;;;;;27.21;37.05;100605.50;5056156;28;1909;-37
2023/07/05 00:06:05;;;;;;;;;;;;;;;27.27;36.70;100607.44;5056243;28;1198;-38
2023/07/05 00:08:31;;;;;;;;;;;;;;;26.85;37.63;100604.34;5056267;28;1030;-35
2023/07/05 00:11:03;;;;;;;;;;;;;;;27.28;36.58;100609.13;5056036;28;1038;-36
2023/07/05 00:13:28;;;;;;;;;;;;;;;27.07;36.92;100607.19;5055673;28;1015;-37
2023/07/05 00:15:54;;;;;;;;;;;;;;;27.16;36.71;100606.03;5056647;28;1202;-37
2023/07/05 00:18:19;;;;;;;;;;;;;;;27.39;36.63;100600.53;5055951;28;1074;-37
2023/07/05 00:20:45;;;;;;;;;;;;;;;26.94;37.33;100605.09;5056094;28;1202;-37
2023/07/05 00:23:10;;;;;;;;;;;;;;;27.29;36.50;100601.84;5056028;28;1143;-37
2023/07/05 00:25:36;;;;;;;;;;;;;;;27.34;36.87;100600.25;5055352;28;1981;-38
2023/07/05 00:28:01;;;;;;;;;;;;;;;26.97;37.02;100602.03;5056091;28;1126;-38
2023/07/05 00:30:27;;;;;;;;;;;;;;;27.33;36.70;100604.00;5071626;28;1160;-37
2023/07/05 00:32:53;;;;;;;;;;;;;;;27.19;36.92;100602.16;5054751;28;1251;-38
2023/07/05 00:35:18;;;;;;;;;;;;;;;26.97;37.52;100596.63;5054949;28;1063;-39
2023/07/05 00:37:44;;;;;;;;;;;;;;;27.27;36.51;100602.06;5055868;28;1159;-38
2023/07/05 00:40:09;;;;;;;;;;;;;;;27.22;36.86;100601.78;5055884;28;1015;-39
2023/07/05 00:42:35;;;;;;;;;;;;;;;27.18;36.29;100605.84;5055949;28;1163;-38
2023/07/05 00:45:24;;;;;;;;;;;;;;;27.33;36.53;100595.03;5056048;28;1906;-38
2023/07/05 00:47:49;;;;;;;;;;;;;;;27.10;36.81;100590.59;5082686;28;1227;-39
2023/07/05 00:50:25;;;;;;;;;;;;;;;27.23;36.74;100598.03;5054380;28;1131;-37
2023/07/05 00:52:50;;;;;;;;;;;;;;;27.35;36.45;100593.00;5056921;28;1180;-37
2023/07/05 00:55:16;;;;;;;;;;;;;;;27.08;36.89;100588.09;5060396;28;992;-37
2023/07/05 00:57:41;;;;;;;;;;;;;;;27.26;36.36;100576.91;5059614;28;1281;-37
2023/07/05 01:00:08;;;;;;;;;;;;;;;27.21;36.87;100573.91;5059370;28;1087;-36
2023/07/05 01:02:38;;;;;;;;;;;;;;;27.11;36.92;100581.50;5059398;28;946;-37
2023/07/05 01:05:04;;;;;;;;;;;;;;;27.28;36.38;100586.69;5059388;28;1977;-37
2023/07/05 01:07:30;;;;;;;;;;;;;;;27.19;36.59;100589.50;5074935;28;1118;-38
2023/07/05 01:09:56;;;;;;;;;;;;;;;27.31;35.99;100581.72;5074614;28;1224;-37
2023/07/05 01:12:22;;;;;;;;;;;;;;;27.29;36.74;100585.66;5074856;28;1205;-38
2023/07/05 01:14:56;;;;;;;;;;;;;;;27.07;36.83;100588.28;5090857;28;1078;-36
2023/07/05 01:17:45;;;;;;;;;;;;;;;27.23;36.63;100582.69;5058871;28;1090;-37
2023/07/05 01:20:15;;;;;;;;;;;;;;;27.21;36.93;100582.03;5086360;28;1884;-38
2023/07/05 01:22:59;;;;;;;;;;;;;;;26.94;37.26;100580.81;5058981;28;1054;-38
2023/07/05 01:25:52;;;;;;;;;;;;;;;27.32;36.41;100579.88;5058866;28;1980;-37
2023/07/05 01:28:17;;;;;;;;;;;;;;;27.11;36.85;100578.78;5030666;28;1127;-36
2023/07/05 01:30:49;;;;;;;;;;;;;;;27.30;36.27;100585.47;5057760;28;1115;-37
2023/07/05 01:33:17;;;;;;;;;;;;;;;27.13;36.90;100593.78;5058909;28;1214;-38
2023/07/05 01:35:47;;;;;;;;;;;;;;;26.93;37.30;100584.50;5059013;28;1071;-37
2023/07/05 01:38:12;;;;;;;;;;;;;;;27.25;36.50;100585.19;5074362;28;1170;-38
2023/07/05 01:40:38;;;;;;;;;;;;;;;27.11;36.96;100589.59;5040900;28;1215;-36
2023/07/05 01:43:05;;;;;;;;;;;;;;;27.12;36.64;100591.25;5058581;28;1069;-38
2023/07/05 01:45:46;;;;;;;;;;;;;;;27.26;36.59;100589.56;5058578;28;1983;-38
2023/07/05 01:48:21;;;;;;;;;;;;;;;27.20;36.43;100591.16;5073676;28;1867;-38
2023/07/05 01:50:50;;;;;;;;;;;;;;;27.23;36.33;100584.53;5057367;28;1235;-38
2023/07/05 01:53:15;;;;;;;;;;;;;;;27.21;37.25;100590.13;5074209;28;1286;-38
2023/07/05 01:55:52;;;;;;;;;;;;;;;27.10;36.76;100587.91;5058472;28;1143;-39
2023/07/05 01:58:18;;;;;;;;;;;;;;;27.10;36.52;100585.19;5073840;28;1143;-37
2023/07/05 02:00:46;;;;;;;;;;;;;;;26.92;37.43;100585.53;5057360;28;1196;-37
2023/07/05 02:03:12;;;;;;;;;;;;;;;26.88;36.98;100582.38;5056128;28;1348;-37
2023/07/05 02:05:38;;;;;;;;;;;;;;;27.16;36.54;100581.75;5057660;28;1979;-38
2023/07/05 02:08:04;;;;;;;;;;;;;;;27.05;37.32;100588.47;5057169;28;1226;-37
2023/07/05 02:10:30;;;;;;;;;;;;;;;27.11;36.80;100589.59;5057908;28;1141;-38
2023/07/05 02:12:56;;;;;;;;;;;;;;;27.20;37.03;100590.31;5058734;28;1059;-38
2023/07/05 02:15:21;;;;;;;;;;;;;;;26.90;37.32;100586.59;5058168;28;849;-38
2023/07/05 02:17:47;;;;;;;;;;;;;;;27.12;36.70;100591.25;5073542;28;1159;-35
2023/07/05 02:20:12;;;;;;;;;;;;;;;27.14;36.66;100594.63;5056998;28;1230;-37
2023/07/05 02:22:38;;;;;;;;;;;;;;;26.95;37.52;100587.88;5073393;28;1135;-34
2023/07/05 02:25:04;;;;;;;;;;;;;;;27.08;36.73;100593.50;5058118;28;1910;-38
2023/07/05 02:27:30;;;;;;;;;;;;;;;26.92;37.13;100591.78;5056212;28;1538;-37
2023/07/05 02:29:56;;;;;;;;;;;;;;;26.80;37.03;100580.59;5058202;28;1051;-37
2023/07/05 02:32:21;;;;;;;;;;;;;;;27.14;36.55;100590.03;5057848;28;1082;-37
2023/07/05 02:34:49;;;;;;;;;;;;;;;26.79;37.32;100584.34;5056392;28;1849;-38
2023/07/05 02:37:14;;;;;;;;;;;;;;;26.93;36.75;100590.75;5057687;28;1078;-36
2023/07/05 02:39:40;;;;;;;;;;;;;;;26.98;36.84;100582.94;5057814;28;1325;-36
2023/07/05 02:42:06;;;;;;;;;;;;;;;26.73;37.50;100583.22;5073266;28;1780;-38
2023/07/05 02:44:32;;;;;;;;;;;;;;;27.08;36.63;100585.38;5057768;28;1906;-38
2023/07/05 02:46:57;;;;;;;;;;;;;;;26.98;37.27;100587.50;5072864;28;1298;-38
2023/07/05 02:49:23;;;;;;;;;;;;;;;26.67;37.06;100581.25;5056623;28;1343;-37
2023/07/05 02:51:48;;;;;;;;;;;;;;;27.05;36.76;100590.31;5057080;28;881;-36
2023/07/05 02:54:14;;;;;;;;;;;;;;;26.93;37.02;100592.59;5056135;28;1120;-37
2023/07/05 02:56:39;;;;;;;;;;;;;;;26.99;36.37;100586.50;5057621;28;1102;-37
2023/07/05 02:59:05;;;;;;;;;;;;;;;27.10;36.75;100594.16;5056111;28;1150;-35
2023/07/05 03:01:30;;;;;;;;;;;;;;;26.75;36.89;100591.13;5057303;28;1055;-37
2023/07/05 03:03:56;;;;;;;;;;;;;;;26.93;36.98;100593.44;5056792;28;1906;-37
2023/07/05 03:06:21;;;;;;;;;;;;;;;27.11;36.68;100595.00;5057076;28;1151;-37
2023/07/05 03:08:47;;;;;;;;;;;;;;;26.82;37.15;100592.06;5055449;28;1040;-38
2023/07/05 03:11:12;;;;;;;;;;;;;;;27.10;37.03;100599.53;5057394;28;1162;-38
2023/07/05 03:13:38;;;;;;;;;;;;;;;27.19;36.82;100603.00;5055570;28;1106;-38
2023/07/05 03:16:05;;;;;;;;;;;;;;;26.95;36.99;100594.13;5056073;28;866;-36
2023/07/05 03:18:32;;;;;;;;;;;;;;;27.08;36.67;100588.09;5056170;28;1110;-37
2023/07/05 03:20:57;;;;;;;;;;;;;;;26.80;37.47;100585.16;5056963;28;1095;-37
2023/07/05 03:23:23;;;;;;;;;;;;;;;26.96;36.83;100586.88;5055915;28;1348;-37
2023/07/05 03:25:54;;;;;;;;;;;;;;;27.04;37.35;100594.91;5056005;28;1914;-36
2023/07/05 03:28:19;;;;;;;;;;;;;;;27.18;36.70;100595.91;5056838;28;818;-35
2023/07/05 03:30:51;;;;;;;;;;;;;;;27.17;36.32;100596.09;5071965;28;1035;-41
2023/07/05 03:33:17;;;;;;;;;;;;;;;27.19;36.64;100589.50;5072083;28;1051;-38
2023/07/05 03:35:43;;;;;;;;;;;;;;;26.98;36.67;100587.50;5056966;28;1071;-39
2023/07/05 03:38:09;;;;;;;;;;;;;;;27.21;36.79;100594.72;5054972;28;1164;-32
2023/07/05 03:40:35;;;;;;;;;;;;;;;26.76;42.08;100595.47;5056627;28;1150;-36
2023/07/05 03:43:00;;;;;;;;;;;;;;;26.24;36.09;100587.16;5056400;28;1199;-32
2023/07/05 03:45:26;;;;;;;;;;;;;;;25.16;34.67;100592.13;5056482;28;1977;-34
2023/07/05 03:47:52;;;;;;;;;;;;;;;25.84;41.87;100590.81;5056591;28;1217;-34
2023/07/05 03:50:17;;;;;;;;;;;;;;;26.08;38.98;100590.81;5056195;28;1035;-34
2023/07/05 03:52:43;;;;;;;;;;;;;;;25.99;39.75;100600.84;5055707;28;1298;-35
2023/07/05 03:55:08;;;;;;;;;;;;;;;26.16;41.17;100596.16;5056720;28;1140;-34
2023/07/05 03:57:34;;;;;;;;;;;;;;;26.32;36.97;100595.19;5056388;28;1019;-35
2023/07/05 03:59:59;;;;;;;;;;;;;;;25.89;37.77;100587.59;5056501;28;1280;-32
2023/07/05 04:02:25;;;;;;;;;;;;;;;25.14;37.96;100582.56;5056033;28;1135;-34
2023/07/05 04:04:50;;;;;;;;;;;;;;;25.70;38.44;100592.41;5056342;28;1988;-34
2023/07/05 04:07:16;;;;;;;;;;;;;;;26.50;38.00;100583.25;5056557;28;1087;-35
2023/07/05 04:09:41;;;;;;;;;;;;;;;26.34;43.28;100581.56;5055989;28;1167;-36
2023/07/05 04:12:07;;;;;;;;;;;;;;;25.30;43.49;100577.09;5055625;28;1043;-38
2023/07/05 04:14:33;;;;;;;;;;;;;;;24.40;47.58;100573.59;5055711;28;1024;-39
2023/07/05 04:16:58;;;;;;;;;;;;;;;23.11;53.32;100580.78;5056059;28;1159;-36
2023/07/05 04:19:24;;;;;;;;;;;;;;;22.39;55.44;100575.44;5055982;28;1020;-36
2023/07/05 04:21:49;;;;;;;;;;;;;;;22.07;56.17;100567.97;5056174;28;1055;-36
2023/07/05 04:24:15;;;;;;;;;;;;;;;21.64;56.59;100571.19;5055551;28;1901;-38
2023/07/05 04:26:40;;;;;;;;;;;;;;;21.65;56.17;100568.34;5074178;28;1144;-32
2023/07/05 04:29:06;;;;;;;;;;;;;;;21.22;57.36;100576.03;5058625;28;1110;-30
2023/07/05 04:31:31;;;;;;;;;;;;;;;21.25;57.33;100572.25;5059865;28;1456;-35
2023/07/05 04:33:57;;;;;;;;;;;;;;;21.16;57.90;100573.97;5059971;28;1146;-36
2023/07/05 04:36:24;;;;;;;;;;;;;;;21.04;60.44;100563.44;5060585;28;1115;-36
2023/07/05 04:38:50;;;;;;;;;;;;;;;23.57;52.17;100571.63;5059729;28;1203;-35
2023/07/05 04:41:16;;;;;;;;;;;;;;;21.96;54.02;100574.38;5075702;28;1350;-32
2023/07/05 04:43:41;;;;;;;;;;;;;;;21.14;56.53;100568.75;5059825;28;1981;-33
2023/07/05 04:46:07;;;;;;;;;;;;;;;20.65;57.94;100577.72;5060223;28;1171;-33
2023/07/05 04:48:32;;;;;;;;;;;;;;;20.59;58.26;100580.13;5059935;28;1404;-35
2023/07/05 04:50:58;;;;;;;;;;;;;;;20.64;58.17;100584.06;5059846;28;1141;-36
2023/07/05 04:53:24;;;;;;;;;;;;;;;20.49;58.34;100581.00;5059621;28;1027;-35
2023/07/05 04:55:50;;;;;;;;;;;;;;;22.47;54.05;100580.00;5059746;28;1031;-34
2023/07/05 04:58:15;;;;;;;;;;;;;;;22.08;52.50;100581.22;5060023;28;1202;-35
2023/07/05 05:00:45;;;;;;;;;;;;;;;20.70;55.74;100576.47;5059593;28;1055;-35
2023/07/05 05:03:12;;;;;;;;;;;;;;;20.07;57.47;100574.09;5059604;28;1159;-36
2023/07/05 05:05:37;;;;;;;;;;;;;;;19.97;58.45;100582.06;5059419;28;1910;-36
2023/07/05 05:08:03;;;;;;;;;;;;;;;19.92;58.83;100577.16;5059459;28;1082;-35
2023/07/05 05:10:28;;;;;;;;;;;;;;;19.83;59.49;100575.34;5059688;28;1059;-35
2023/07/05 05:12:54;;;;;;;;;;;;;;;19.91;59.56;100569.28;5059388;28;1230;-35
2023/07/05 05:15:19;;;;;;;;;;;;;;;19.89;62.21;100565.91;5059077;28;1170;-36
2023/07/05 05:17:45;;;;;;;;;;;;;;;22.56;52.26;100570.19;5059420;28;1233;-35
2023/07/05 05:20:10;;;;;;;;;;;;;;;20.93;54.89;100571.66;5059467;28;1059;-36
2023/07/05 05:22:36;;;;;;;;;;;;;;;19.78;59.15;100577.56;5058563;28;1059;-35
2023/07/05 05:25:01;;;;;;;;;;;;;;;22.36;51.16;100575.75;5059367;28;1977;-34
2023/07/05 05:27:27;;;;;;;;;;;;;;;21.14;53.83;100575.94;5058692;28;1214;-36
2023/07/05 05:29:52;;;;;;;;;;;;;;;20.09;57.14;100572.16;5058915;28;1249;-34
2023/07/05 05:32:18;;;;;;;;;;;;;;;19.92;58.08;100582.50;5059158;28;1127;-33
2023/07/05 05:34:43;;;;;;;;;;;;;;;19.83;58.85;100565.47;5059542;28;1054;-35
2023/07/05 05:37:09;;;;;;;;;;;;;;;20.35;59.80;100573.41;5058146;28;1087;-32
2023/07/05 05:39:34;;;;;;;;;;;;;;;22.60;50.40;100573.41;5058571;28;1063;-35
2023/07/05 05:42:00;;;;;;;;;;;;;;;20.46;54.28;100569.75;5058814;28;1202;-34
2023/07/05 05:44:25;;;;;;;;;;;;;;;21.15;55.08;100573.09;5058943;28;2229;-35
2023/07/05 05:46:51;;;;;;;;;;;;;;;22.65;48.00;100573.81;5058477;28;1116;-29
2023/07/05 05:49:16;;;;;;;;;;;;;;;20.55;54.98;100568.91;5058853;28;1047;-35
2023/07/05 05:51:42;;;;;;;;;;;;;;;20.16;57.38;100562.59;5058722;28;1140;-36
2023/07/05 05:54:08;;;;;;;;;;;;;;;19.85;58.89;100572.53;5058504;28;1034;-33
2023/07/05 05:56:33;;;;;;;;;;;;;;;19.70;59.53;100575.59;5058634;28;1117;-37
2023/07/05 05:58:59;;;;;;;;;;;;;;;20.08;62.01;100565.13;5058783;28;1079;-35
2023/07/05 06:01:24;;;;;;;;;;;;;;;22.57;52.83;100569.19;5058865;28;1039;-36
2023/07/05 06:03:49;;;;;;;;;;;;;;;20.65;55.96;100561.69;5057720;28;1981;-33
2023/07/05 06:06:15;;;;;;;;;;;;;;;19.95;57.67;100571.53;5058498;28;1110;-32
2023/07/05 06:08:40;;;;;;;;;;;;;;;19.81;61.44;100571.94;5058503;28;1138;-33
2023/07/05 06:11:06;;;;;;;;;;;;;;;22.20;52.36;100584.50;5058333;28;1119;-32
2023/07/05 06:13:32;;;;;;;;;;;;;;;21.01;55.61;100569.09;5057769;28;1194;-35
2023/07/05 06:15:58;;;;;;;;;;;;;;;20.38;57.49;100567.78;5058239;28;1457;-37
2023/07/05 06:18:24;;;;;;;;;;;;;;;19.98;58.91;100577.59;5057967;28;1047;-35
2023/07/05 06:20:50;;;;;;;;;;;;;;;20.62;59.24;100571.84;5058271;28;1147;-34
2023/07/05 06:23:15;;;;;;;;;;;;;;;22.75;52.21;100576.41;5058427;28;1147;-32
2023/07/05 06:25:44;;;;;;;;;;;;;;;20.76;56.19;100565.19;5057761;28;2006;-35
2023/07/05 06:28:09;;;;;;;;;;;;;;;20.27;57.63;100574.97;5057533;28;1099;-33
2023/07/05 06:30:35;;;;;;;;;;;;;;;21.56;56.23;100571.94;5057992;28;1095;-35
2023/07/05 06:33:00;;;;;;;;;;;;;;;22.30;51.22;100568.34;5057796;28;1141;-35
2023/07/05 06:35:26;;;;;;;;;;;;;;;20.81;56.77;100573.63;5058034;28;1145;-35
2023/07/05 06:37:51;;;;;;;;;;;;;;;20.12;58.77;100573.72;5057723;28;1211;-34
2023/07/05 06:40:17;;;;;;;;;;;;;;;20.47;60.34;100569.59;5057635;28;1023;-34
2023/07/05 06:42:42;;;;;;;;;;;;;;;22.72;51.84;100568.69;5057153;28;1035;-36
2023/07/05 06:45:12;;;;;;;;;;;;;;;20.96;56.13;100562.47;5056309;28;1969;-33
2023/07/05 06:47:38;;;;;;;;;;;;;;;20.35;58.13;100574.28;5044432;28;1135;-34
2023/07/05 06:50:04;;;;;;;;;;;;;;;20.17;58.90;100577.63;5057679;28;1163;-31
2023/07/05 06:52:30;;;;;;;;;;;;;;;20.15;59.55;100574.25;5057297;28;892;-33
2023/07/05 06:54:55;;;;;;;;;;;;;;;19.97;63.35;100578.59;5072660;28;1071;-33
2023/07/05 06:57:21;;;;;;;;;;;;;;;22.29;55.32;100580.03;5044766;28;1110;-35
2023/07/05 06:59:46;;;;;;;;;;;;;;;21.30;56.15;100575.31;5057302;28;1062;-35
2023/07/05 07:02:12;;;;;;;;;;;;;;;20.22;57.86;100574.53;5057734;28;1157;-30
2023/07/05 07:04:37;;;;;;;;;;;;;;;20.95;59.87;100576.84;5057044;28;1906;-33
2023/07/05 07:07:03;;;;;;;;;;;;;;;22.94;52.53;100578.00;5057431;28;1191;-36
2023/07/05 07:09:29;;;;;;;;;;;;;;;20.82;57.53;100572.63;5057082;28;1014;-32
2023/07/05 07:11:54;;;;;;;;;;;;;;;20.43;58.75;100566.38;5057254;28;1142;-36
2023/07/05 07:14:20;;;;;;;;;;;;;;;20.09;59.76;100569.47;5057140;28;1129;-35
2023/07/05 07:16:46;;;;;;;;;;;;;;;20.22;59.56;100571.88;5057177;28;1062;-36
2023/07/05 07:19:12;;;;;;;;;;;;;;;20.89;60.24;100573.75;5057364;28;1128;-35
2023/07/05 07:21:38;;;;;;;;;;;;;;;22.80;53.36;100573.25;5072565;28;1062;-33
2023/07/05 07:24:04;;;;;;;;;;;;;;;20.87;57.84;100572.22;5057004;28;1981;-34
2023/07/05 07:26:30;;;;;;;;;;;;;;;20.32;58.56;100561.16;5057384;28;1151;-34
2023/07/05 07:28:55;;;;;;;;;;;;;;;20.23;60.12;100570.91;5056197;28;1012;-35
2023/07/05 07:31:25;;;;;;;;;;;;;;;22.55;52.38;100565.00;5056640;28;1146;-33
2023/07/05 07:33:51;;;;;;;;;;;;;;;21.24;54.25;100565.19;5057085;28;1015;-36
2023/07/05 07:36:18;;;;;;;;;;;;;;;20.35;56.32;100562.72;5071824;28;1124;-35
2023/07/05 07:38:43;;;;;;;;;;;;;;;20.00;58.19;100562.28;5071881;28;1059;-35
2023/07/05 07:41:28;;;;;;;;;;;;;;;19.98;61.13;100564.25;5056134;28;1027;-36
2023/07/05 07:43:53;;;;;;;;;;;;;;;22.39;51.89;100567.41;5056836;28;2032;-34
2023/07/05 07:46:20;;;;;;;;;;;;;;;20.67;56.83;100565.06;5056497;28;1039;-33
2023/07/05 07:48:46;;;;;;;;;;;;;;;20.15;58.91;100562.75;5056403;28;1063;-35
2023/07/05 07:51:12;;;;;;;;;;;;;;;19.97;59.65;100571.41;5056642;28;1150;-34
2023/07/05 07:53:37;;;;;;;;;;;;;;;19.83;60.19;100567.31;5056359;28;1210;-33
2023/07/05 07:56:10;;;;;;;;;;;;;;;20.75;59.89;100561.66;5056530;28;1210;-35
2023/07/05 07:58:35;;;;;;;;;;;;;;;22.47;52.49;100568.47;5056553;28;1091;-34
2023/07/05 08:01:11;;;;;;;;;;;;;;;20.52;58.10;100556.66;5056151;28;1087;-34
2023/07/05 08:03:38;;;;;;;;;;;;;;;19.81;60.25;100561.28;5056245;28;1225;-32
2023/07/05 08:06:03;;;;;;;;;;;;;;;19.92;59.73;100562.97;5056353;28;1914;-35
2023/07/05 08:08:29;;;;;;;;;;;;;;;19.67;60.70;100563.34;5056215;28;1027;-35
2023/07/05 08:10:54;;;;;;;;;;;;;;;20.21;63.00;100559.50;5056632;28;1203;-33
2023/07/05 08:13:20;;;;;;;;;;;;;;;22.42;54.38;100566.22;5055861;28;1086;-34
2023/07/05 08:15:45;;;;;;;;;;;;;;;20.41;57.06;100564.81;5056703;28;1102;-33
2023/07/05 08:18:11;;;;;;;;;;;;;;;20.46;61.73;100567.91;5056250;28;1340;-34
2023/07/05 08:20:36;;;;;;;;;;;;;;;22.50;52.76;100565.47;5056041;28;1047;-34
2023/07/05 08:23:02;;;;;;;;;;;;;;;20.52;56.66;100566.53;5055821;28;1098;-33
2023/07/05 08:25:28;;;;;;;;;;;;;;;19.77;58.21;100559.88;5056579;28;1971;-33
2023/07/05 08:27:53;;;;;;;;;;;;;;;21.26;56.20;100561.38;5055752;28;1198;-33
2023/07/05 08:30:19;;;;;;;;;;;;;;;21.82;53.51;100565.06;5055746;28;876;-34
2023/07/05 08:32:44;;;;;;;;;;;;;;;20.28;58.83;100559.78;5056012;28;1036;-32
2023/07/05 08:35:10;;;;;;;;;;;;;;;19.91;59.96;100561.28;5071515;28;1218;-32
2023/07/05 08:37:36;;;;;;;;;;;;;;;19.70;60.69;100560.41;5055699;28;1090;-34
2023/07/05 08:40:02;;;;;;;;;;;;;;;19.95;60.09;100568.88;5055986;28;1135;-36
2023/07/05 08:42:33;;;;;;;;;;;;;;;20.70;60.45;100557.75;5055641;28;1175;-34
2023/07/05 08:45:02;;;;;;;;;;;;;;;22.59;53.11;100567.22;5071157;28;1971;-36
2023/07/05 08:47:33;;;;;;;;;;;;;;;20.48;56.91;100562.44;5055843;28;1139;-34
2023/07/05 08:50:02;;;;;;;;;;;;;;;19.54;59.13;100563.59;5071252;28;1242;-35
2023/07/05 08:52:32;;;;;;;;;;;;;;;19.52;60.64;100570.06;5056149;28;1039;-33
2023/07/05 08:54:58;;;;;;;;;;;;;;;19.33;61.46;100563.69;5055679;28;1050;-33
2023/07/05 08:57:25;;;;;;;;;;;;;;;19.35;61.66;100564.41;5071532;28;1122;-34
2023/07/05 08:59:53;;;;;;;;;;;;;;;19.33;61.95;100566.34;5055658;28;1031;-34
2023/07/05 09:02:19;;;;;;;;;;;;;;;19.52;64.24;100567.41;5042272;28;1269;-33
2023/07/05 09:04:47;;;;;;;;;;;;;;;22.15;54.53;100562.69;5070205;28;1910;-33
2023/07/05 09:07:31;;;;;;;;;;;;;;;20.46;57.77;100556.38;5056126;28;920;-33
2023/07/05 09:10:05;;;;;;;;;;;;;;;19.43;59.88;100558.38;5055225;28;1065;-34
2023/07/05 09:12:30;;;;;;;;;;;;;;;19.31;61.28;100554.97;5055682;28;1055;-33
2023/07/05 09:14:56;;;;;;;;;;;;;;;21.23;57.35;100553.66;5059481;28;1067;-37
2023/07/05 09:17:40;;;;;;;;;;;;;;;21.46;55.11;100561.28;5059022;28;1067;-34
2023/07/05 09:20:12;;;;;;;;;;;;;;;19.65;58.97;100553.81;5058903;28;1043;-36
2023/07/05 09:22:38;;;;;;;;;;;;;;;21.98;54.74;100559.84;5074983;28;1199;-34
2023/07/05 09:25:05;;;;;;;;;;;;;;;20.98;56.00;100544.47;5058748;28;1971;-34
2023/07/05 09:27:38;;;;;;;;;;;;;;;19.94;58.08;100543.16;5074330;28;1168;-33
2023/07/05 09:30:06;;;;;;;;;;;;;;;19.82;59.20;100549.59;5064769;28;953;-35
2023/07/05 09:32:36;;;;;;;;;;;;;;;22.00;54.22;100549.00;5058951;28;1217;-32
2023/07/05 09:35:02;;;;;;;;;;;;;;;21.00;55.97;100543.31;5074583;28;1064;-34
2023/07/05 09:37:32;;;;;;;;;;;;;;;19.73;58.79;100547.78;5058943;28;1047;-33
2023/07/05 09:40:15;;;;;;;;;;;;;;;19.82;62.57;100547.78;5074190;28;1179;-34
2023/07/05 09:42:42;;;;;;;;;;;;;;;22.44;53.23;100555.38;5073410;28;1031;-31
2023/07/05 09:45:13;;;;;;;;;;;;;;;20.46;57.72;100553.72;5074316;28;1938;-34
2023/07/05 09:47:39;;;;;;;;;;;;;;;19.81;62.50;100545.25;5058574;28;1007;-34
2023/07/05 09:50:13;;;;;;;;;;;;;;;21.97;54.91;100546.63;5058585;28;1070;-33
2023/07/05 09:52:39;;;;;;;;;;;;;;;20.60;57.40;100549.75;5058861;28;1125;-35
2023/07/05 09:55:05;;;;;;;;;;;;;;;19.73;58.96;100539.78;5056961;28;1390;-34
2023/07/05 09:57:30;;;;;;;;;;;;;;;19.47;60.90;100554.44;5074179;28;1102;-32
2023/07/05 09:59:56;;;;;;;;;;;;;;;21.25;57.67;100548.16;5058436;28;1087;-34
2023/07/05 10:02:31;;;;;;;;;;;;;;;21.67;54.45;100548.63;5073957;28;1167;-34
2023/07/05 10:04:58;;;;;;;;;;;;;;;19.97;58.70;100544.69;5058517;28;1902;-33
2023/07/05 10:07:24;;;;;;;;;;;;;;;21.72;55.99;100549.03;5073581;28;857;-33
2023/07/05 10:09:54;;;;;;;;;;;;;;;21.28;55.77;100548.72;5057974;28;1046;-34
2023/07/05 10:12:19;;;;;;;;;;;;;;;19.99;58.36;100540.06;5058082;28;1130;-33
2023/07/05 10:14:46;;;;;;;;;;;;;;;20.23;62.77;100546.84;5073769;28;1132;-35
2023/07/05 10:17:12;;;;;;;;;;;;;;;22.64;53.23;100548.00;5073059;28;1261;-32
2023/07/05 10:19:38;;;;;;;;;;;;;;;20.47;57.74;100544.72;5057683;28;1078;-34
2023/07/05 10:22:10;;;;;;;;;;;;;;;19.75;59.12;100543.97;5058395;28;1075;-32
2023/07/05 10:25:02;;;;;;;;;;;;;;;20.33;61.75;100552.19;5073287;28;1890;-33
2023/07/05 10:27:28;;;;;;;;;;;;;;;22.41;54.48;100544.94;5056951;28;1282;-33
2023/07/05 10:30:01;;;;;;;;;;;;;;;20.37;58.39;100542.88;5073033;28;1369;-35
2023/07/05 10:32:28;;;;;;;;;;;;;;;19.68;60.05;100543.72;5055858;28;1531;-35
2023/07/05 10:34:55;;;;;;;;;;;;;;;19.63;60.86;100547.75;5058019;28;1062;-30
2023/07/05 10:37:26;;;;;;;;;;;;;;;20.23;62.61;100536.19;5058277;28;1091;-34
2023/07/05 10:39:51;;;;;;;;;;;;;;;22.36;53.85;100540.06;5058102;28;1121;-34
2023/07/05 10:42:17;;;;;;;;;;;;;;;20.66;57.49;100531.31;5057573;28;1190;-34
2023/07/05 10:44:42;;;;;;;;;;;;;;;19.87;58.67;100535.88;5058199;28;1975;-33
2023/07/05 10:47:09;;;;;;;;;;;;;;;19.78;60.00;100535.72;5057904;28;1163;-33
2023/07/05 10:49:35;;;;;;;;;;;;;;;19.75;60.52;100541.31;5057635;28;1129;-35
2023/07/05 10:52:03;;;;;;;;;;;;;;;19.77;60.70;100539.34;5057653;28;1130;-34
2023/07/05 10:54:29;;;;;;;;;;;;;;;19.53;61.86;100543.25;5072428;28;1175;-36
2023/07/05 10:56:54;;;;;;;;;;;;;;;19.57;62.04;100538.47;5057675;28;1067;-35
2023/07/05 10:59:26;;;;;;;;;;;;;;;21.65;57.16;100546.94;5057314;28;1142;-33
2023/07/05 11:01:58;;;;;;;;;;;;;;;21.12;56.46;100543.16;5057254;28;1166;-35
2023/07/05 11:04:24;;;;;;;;;;;;;;;19.92;59.11;100537.13;5057028;28;1883;-34
2023/07/05 11:06:50;;;;;;;;;;;;;;;19.55;60.94;100535.94;5056795;28;1086;-31
2023/07/05 11:09:17;;;;;;;;;;;;;;;21.29;57.75;100542.38;5072928;28;1176;-34
2023/07/05 11:11:44;;;;;;;;;;;;;;;21.45;55.27;100545.38;5057618;28;1023;-34
2023/07/05 11:14:12;;;;;;;;;;;;;;;20.12;58.97;100545.16;5057040;28;1136;-34
2023/07/05 11:16:39;;;;;;;;;;;;;;;19.68;60.72;100549.03;5072655;28;1167;-34
2023/07/05 11:19:06;;;;;;;;;;;;;;;19.42;62.10;100552.19;5072051;28;1153;-32
2023/07/05 11:21:35;;;;;;;;;;;;;;;19.58;62.17;100548.19;5056845;28;1062;-37
2023/07/05 11:24:01;;;;;;;;;;;;;;;19.55;62.28;100543.94;5057481;28;1910;-34
2023/07/05 11:26:33;;;;;;;;;;;;;;;19.63;62.41;100539.75;5056933;28;1108;-34
2023/07/05 11:29:00;;;;;;;;;;;;;;;21.07;59.23;100538.22;5057051;28;1058;-34
2023/07/05 11:31:28;;;;;;;;;;;;;;;21.49;55.58;100544.94;5056495;28;1621;-34
2023/07/05 11:34:12;;;;;;;;;;;;;;;20.05;59.38;100530.69;5056408;28;1034;-29
2023/07/05 11:36:39;;;;;;;;;;;;;;;20.09;63.42;100540.09;5056180;28;1155;-34
2023/07/05 11:39:06;;;;;;;;;;;;;;;22.32;54.85;100544.88;5056919;28;1055;-33
2023/07/05 11:41:37;;;;;;;;;;;;;;;20.50;57.71;100533.75;5056626;28;1133;-33
2023/07/05 11:44:21;;;;;;;;;;;;;;;19.85;58.69;100544.00;5056278;28;1906;-33
2023/07/05 11:46:48;;;;;;;;;;;;;;;21.89;55.31;100539.34;5056215;28;1071;-34
2023/07/05 11:49:13;;;;;;;;;;;;;;;21.03;56.41;100534.19;5056610;28;1157;-34
2023/07/05 11:51:39;;;;;;;;;;;;;;;20.08;58.29;100535.75;5056418;28;1122;-36
2023/07/05 11:54:05;;;;;;;;;;;;;;;20.13;63.14;100530.84;5071880;28;1143;-33
2023/07/05 11:56:30;;;;;;;;;;;;;;;22.12;54.27;100528.16;5056559;28;1117;-35
2023/07/05 11:58:56;;;;;;;;;;;;;;;20.66;56.95;100519.78;5072042;28;1167;-32
2023/07/05 12:01:24;;;;;;;;;;;;;;;19.75;58.82;100513.78;5071128;28;1159;-35
2023/07/05 12:03:51;;;;;;;;;;;;;;;21.12;58.02;100519.09;5042800;28;1969;-34
2023/07/05 12:06:18;;;;;;;;;;;;;;;21.89;54.19;100510.72;5071323;28;1167;-35
2023/07/05 12:08:46;;;;;;;;;;;;;;;20.26;57.55;100511.00;5056341;28;1135;-34
2023/07/05 12:11:12;;;;;;;;;;;;;;;21.16;58.44;100510.63;5071418;28;1140;-34
2023/07/05 12:13:38;;;;;;;;;;;;;;;22.47;53.35;100510.31;5056114;28;1122;-32
2023/07/05 12:16:05;;;;;;;;;;;;;;;20.34;57.54;100497.75;5055204;28;1126;-31
2023/07/05 12:18:30;;;;;;;;;;;;;;;19.88;61.10;100498.34;5070805;28;1189;-34
2023/07/05 12:20:58;;;;;;;;;;;;;;;22.04;54.40;100501.31;5054905;28;1120;-35
2023/07/05 12:23:24;;;;;;;;;;;;;;;21.00;55.63;100497.84;5070784;28;1068;-34
2023/07/05 12:25:52;;;;;;;;;;;;;;;19.92;58.27;100493.53;5055686;28;1901;-36
2023/07/05 12:28:20;;;;;;;;;;;;;;;21.38;57.30;100492.47;5054541;28;1103;-34
2023/07/05 12:30:46;;;;;;;;;;;;;;;21.90;54.02;100492.84;5055392;28;1135;-32
2023/07/05 12:33:22;;;;;;;;;;;;;;;20.19;57.30;100484.88;5055957;28;1169;-33
2023/07/05 12:36:03;;;;;;;;;;;;;;;20.51;61.43;100484.66;5071217;28;2395;-34
2023/07/05 12:38:29;;;;;;;;;;;;;;;22.75;52.17;100479.88;5055765;28;1039;-32
2023/07/05 12:40:55;;;;;;;;;;;;;;;20.42;56.50;100479.19;5055607;28;1143;-33
2023/07/05 12:43:22;;;;;;;;;;;;;;;19.90;61.69;100480.34;5070871;28;1190;-33
2023/07/05 12:45:47;;;;;;;;;;;;;;;22.24;53.28;100480.50;5055454;28;2034;-33
2023/07/05 12:48:20;;;;;;;;;;;;;;;20.88;55.80;100467.78;5058934;28;1166;-33